Etusivu
METAR-TAF:

METAR-TAF

Lentoasemat :

Mikkeli, Suomi

Mikkelin lentoasema

Leveyspiiri: 61-44N, Pituuspiiri: 027-18E, korkeus merenpinnasta: 138 m

Tämänhetkinen sää

Tämä raportti tehtiin 23 minuuttia sitten, kello 07.20 UTC
Tuuli 3 kn luoteesta
Lämpötila -10°C
Kosteus 85%
Ilmanpaine 1035 hPa
Näkyvyys: 3600 m
Muutamia pilviä 2400 ft:n korkeudessa
Pilvistä 3000 ft:n korkeudessa
heikkoa lumisadetta

METAR: EFMI 250720Z AUTO 31003KT 3600 -SN FEW024 OVC030 M10/M12 Q1035

Aika: 09:43 (07:43 UTC)


TAF: puuttuu

Säähavainnot ja -ennusteet yli 4000 lentoasemalta (METAR- ja TAF-raportit).

Käytössä olevat sääasemat on merkitty karttaan keltaisilla ja punaisilla pisteillä.

Aseta hiiri pisteen päälle nähdäksesi sääaseman nimen.

Klikkaa sitten nähdäksesi säähavainnot ja -ennusteet.

Kartan vaihtaminen: klikkaa mustalla rastilla varustettuja vihreitä pisteitä, niin voit zoomata sisään; viivalla varustettua vihreää pistettä, niin voit zoomata ulos tai vihreitä nuolia, niin pääset viereisille kartoille.


METAR-TAF: